sensor_id;sensor_type;location;lat;lon;timestamp;temperature;humidity
2002;DHT22;1003;48.002;7.788;2023-05-10T06:48:42;13.70;99.90
2002;DHT22;1003;48.002;7.788;2023-05-10T06:51:09;13.50;99.90
2002;DHT22;1003;48.002;7.788;2023-05-10T06:53:36;13.60;99.90
2002;DHT22;1003;48.002;7.788;2023-05-10T06:56:04;13.70;99.90
2002;DHT22;1003;48.002;7.788;2023-05-10T06:58:31;13.70;99.90
2002;DHT22;1003;48.002;7.788;2023-05-10T07:01:02;13.80;99.90
2002;DHT22;1003;48.002;7.788;2023-05-10T07:03:29;13.90;99.90
2002;DHT22;1003;48.002;7.788;2023-05-10T07:06:01;14.10;99.90
2002;DHT22;1003;48.002;7.788;2023-05-10T07:08:30;14.20;99.90
2002;DHT22;1003;48.002;7.788;2023-05-10T07:11:00;14.40;99.90
2002;DHT22;1003;48.002;7.788;2023-05-10T07:13:29;14.60;99.90
2002;DHT22;1003;48.002;7.788;2023-05-10T07:15:57;14.90;99.90
2002;DHT22;1003;48.002;7.788;2023-05-10T07:18:24;14.80;99.90
2002;DHT22;1003;48.002;7.788;2023-05-10T07:20:51;14.80;99.90
2002;DHT22;1003;48.002;7.788;2023-05-10T07:23:19;15.00;99.90
2002;DHT22;1003;48.002;7.788;2023-05-10T07:25:47;15.10;99.90
2002;DHT22;1003;48.002;7.788;2023-05-10T07:28:15;15.10;99.90
2002;DHT22;1003;48.002;7.788;2023-05-10T07:30:42;15.30;99.90
2002;DHT22;1003;48.002;7.788;2023-05-10T07:33:14;15.20;99.90
2002;DHT22;1003;48.002;7.788;2023-05-10T07:35:41;15.30;99.90
2002;DHT22;1003;48.002;7.788;2023-05-10T07:38:09;15.60;99.90
2002;DHT22;1003;48.002;7.788;2023-05-10T07:40:39;15.80;99.90
2002;DHT22;1003;48.002;7.788;2023-05-10T07:43:06;15.90;99.90
2002;DHT22;1003;48.002;7.788;2023-05-10T07:45:33;16.00;99.90
2002;DHT22;1003;48.002;7.788;2023-05-10T07:48:00;16.10;99.90
2002;DHT22;1003;48.002;7.788;2023-05-10T07:50:27;16.10;99.90
2002;DHT22;1003;48.002;7.788;2023-05-10T07:52:55;16.40;99.90
2002;DHT22;1003;48.002;7.788;2023-05-10T07:55:22;16.70;99.90
2002;DHT22;1003;48.002;7.788;2023-05-10T07:57:50;16.80;99.90
2002;DHT22;1003;48.002;7.788;2023-05-10T08:00:18;17.10;99.90
2002;DHT22;1003;48.002;7.788;2023-05-10T08:02:46;17.30;99.90
2002;DHT22;1003;48.002;7.788;2023-05-10T08:05:14;17.00;99.90
2002;DHT22;1003;48.002;7.788;2023-05-10T08:07:41;16.90;99.90
2002;DHT22;1003;48.002;7.788;2023-05-10T08:10:11;16.70;99.90
2002;DHT22;1003;48.002;7.788;2023-05-10T08:12:39;16.60;99.90
2002;DHT22;1003;48.002;7.788;2023-05-10T08:15:09;16.70;99.90
2002;DHT22;1003;48.002;7.788;2023-05-10T08:17:36;16.70;99.90
2002;DHT22;1003;48.002;7.788;2023-05-10T08:20:05;16.50;99.90
2002;DHT22;1003;48.002;7.788;2023-05-10T08:22:33;16.50;99.90
2002;DHT22;1003;48.002;7.788;2023-05-10T08:25:01;16.80;99.90
2002;DHT22;1003;48.002;7.788;2023-05-10T08:27:28;17.40;99.90
2002;DHT22;1003;48.002;7.788;2023-05-10T08:29:55;17.60;99.90
2002;DHT22;1003;48.002;7.788;2023-05-10T08:32:26;17.80;99.90
2002;DHT22;1003;48.002;7.788;2023-05-10T08:34:53;17.60;99.90
2002;DHT22;1003;48.002;7.788;2023-05-10T08:37:22;17.10;99.90
2002;DHT22;1003;48.002;7.788;2023-05-10T08:39:50;17.40;99.90
2002;DHT22;1003;48.002;7.788;2023-05-10T08:42:19;17.50;99.90
2002;DHT22;1003;48.002;7.788;2023-05-10T08:44:53;17.80;99.90
2002;DHT22;1003;48.002;7.788;2023-05-10T08:47:21;18.40;99.90
2002;DHT22;1003;48.002;7.788;2023-05-10T08:49:50;18.60;99.90
2002;DHT22;1003;48.002;7.788;2023-05-10T08:52:18;18.70;99.90
2002;DHT22;1003;48.002;7.788;2023-05-10T08:54:45;19.10;99.90
2002;DHT22;1003;48.002;7.788;2023-05-10T08:57:13;19.30;99.90
2002;DHT22;1003;48.002;7.788;2023-05-10T08:59:40;19.20;99.90
2002;DHT22;1003;48.002;7.788;2023-05-10T09:02:10;19.60;99.90
2002;DHT22;1003;48.002;7.788;2023-05-10T09:04:39;19.60;99.90
2002;DHT22;1003;48.002;7.788;2023-05-10T09:07:08;19.70;99.90
2002;DHT22;1003;48.002;7.788;2023-05-10T09:09:38;19.20;99.90
2002;DHT22;1003;48.002;7.788;2023-05-10T09:12:05;18.90;99.90
2002;DHT22;1003;48.002;7.788;2023-05-10T09:14:37;18.60;99.90
2002;DHT22;1003;48.002;7.788;2023-05-10T09:17:05;18.50;99.90
2002;DHT22;1003;48.002;7.788;2023-05-10T09:19:32;18.30;99.90
2002;DHT22;1003;48.002;7.788;2023-05-10T09:21:59;18.20;99.90
2002;DHT22;1003;48.002;7.788;2023-05-10T09:24:29;18.20;99.90
2002;DHT22;1003;48.002;7.788;2023-05-10T09:26:57;18.30;99.90
2002;DHT22;1003;48.002;7.788;2023-05-10T09:29:24;18.30;99.90
2002;DHT22;1003;48.002;7.788;2023-05-10T09:31:51;18.30;99.90
2002;DHT22;1003;48.002;7.788;2023-05-10T09:34:28;18.20;99.90
2002;DHT22;1003;48.002;7.788;2023-05-10T09:37:01;18.40;99.90
2002;DHT22;1003;48.002;7.788;2023-05-10T09:39:35;18.70;99.90
2002;DHT22;1003;48.002;7.788;2023-05-10T09:42:04;18.90;99.90
2002;DHT22;1003;48.002;7.788;2023-05-10T09:44:33;19.30;99.90
2002;DHT22;1003;48.002;7.788;2023-05-10T09:47:00;19.10;99.90
2002;DHT22;1003;48.002;7.788;2023-05-10T09:49:29;19.30;99.90
2002;DHT22;1003;48.002;7.788;2023-05-10T09:52:00;19.20;99.90
2002;DHT22;1003;48.002;7.788;2023-05-10T09:54:29;19.30;99.90
2002;DHT22;1003;48.002;7.788;2023-05-10T09:56:58;19.20;99.90
2002;DHT22;1003;48.002;7.788;2023-05-10T09:59:26;19.70;99.90
2002;DHT22;1003;48.002;7.788;2023-05-10T10:01:56;19.70;99.90
2002;DHT22;1003;48.002;7.788;2023-05-10T10:04:24;19.90;99.90
2002;DHT22;1003;48.002;7.788;2023-05-10T10:07:02;19.90;99.90
2002;DHT22;1003;48.002;7.788;2023-05-10T10:09:30;19.80;99.90
2002;DHT22;1003;48.002;7.788;2023-05-10T10:11:59;19.80;99.90
2002;DHT22;1003;48.002;7.788;2023-05-10T10:14:27;19.60;99.90
2002;DHT22;1003;48.002;7.788;2023-05-10T10:16:55;19.70;99.90
2002;DHT22;1003;48.002;7.788;2023-05-10T10:19:23;19.80;99.90
2002;DHT22;1003;48.002;7.788;2023-05-10T10:21:50;20.00;99.90
2002;DHT22;1003;48.002;7.788;2023-05-10T10:24:17;19.50;99.90
2002;DHT22;1003;48.002;7.788;2023-05-10T10:26:45;19.80;99.90
2002;DHT22;1003;48.002;7.788;2023-05-10T10:29:21;20.20;99.90
2002;DHT22;1003;48.002;7.788;2023-05-10T10:32:00;20.50;99.90
2002;DHT22;1003;48.002;7.788;2023-05-10T10:34:33;20.10;99.90
2002;DHT22;1003;48.002;7.788;2023-05-10T10:37:04;19.80;99.90
2002;DHT22;1003;48.002;7.788;2023-05-10T10:39:32;19.50;99.90
2002;DHT22;1003;48.002;7.788;2023-05-10T10:42:02;19.60;99.90
2002;DHT22;1003;48.002;7.788;2023-05-10T10:44:36;19.40;99.90
2002;DHT22;1003;48.002;7.788;2023-05-10T10:47:06;19.10;99.90
2002;DHT22;1003;48.002;7.788;2023-05-10T10:49:51;18.80;99.90
2002;DHT22;1003;48.002;7.788;2023-05-10T10:52:24;18.70;99.90
2002;DHT22;1003;48.002;7.788;2023-05-10T10:54:59;18.70;99.90
2002;DHT22;1003;48.002;7.788;2023-05-10T10:57:32;18.60;99.90
2002;DHT22;1003;48.002;7.788;2023-05-10T11:00:24;18.80;99.90
2002;DHT22;1003;48.002;7.788;2023-05-10T11:02:54;19.20;99.90
2002;DHT22;1003;48.002;7.788;2023-05-10T11:05:41;19.50;99.90
2002;DHT22;1003;48.002;7.788;2023-05-10T11:08:11;19.70;99.90
2002;DHT22;1003;48.002;7.788;2023-05-10T11:10:50;19.40;99.90
2002;DHT22;1003;48.002;7.788;2023-05-10T11:13:30;19.40;99.90
2002;DHT22;1003;48.002;7.788;2023-05-10T11:16:13;19.20;99.90
2002;DHT22;1003;48.002;7.788;2023-05-10T11:18:57;19.30;99.90
2002;DHT22;1003;48.002;7.788;2023-05-10T11:21:27;19.10;99.90
2002;DHT22;1003;48.002;7.788;2023-05-10T11:23:57;19.00;99.90
2002;DHT22;1003;48.002;7.788;2023-05-10T11:26:25;18.90;99.90
2002;DHT22;1003;48.002;7.788;2023-05-10T11:28:57;18.70;99.90
2002;DHT22;1003;48.002;7.788;2023-05-10T11:31:28;18.40;99.90
2002;DHT22;1003;48.002;7.788;2023-05-10T11:33:56;18.30;99.90
2002;DHT22;1003;48.002;7.788;2023-05-10T11:36:27;18.40;99.90
2002;DHT22;1003;48.002;7.788;2023-05-10T11:38:56;18.40;99.90
2002;DHT22;1003;48.002;7.788;2023-05-10T11:41:24;18.30;99.90
2002;DHT22;1003;48.002;7.788;2023-05-10T11:43:53;18.40;99.90
2002;DHT22;1003;48.002;7.788;2023-05-10T11:46:22;18.20;99.90
2002;DHT22;1003;48.002;7.788;2023-05-10T11:48:53;18.30;99.90
2002;DHT22;1003;48.002;7.788;2023-05-10T11:51:25;18.30;99.90
2002;DHT22;1003;48.002;7.788;2023-05-10T11:53:53;18.30;99.90
2002;DHT22;1003;48.002;7.788;2023-05-10T11:56:22;18.40;99.90
2002;DHT22;1003;48.002;7.788;2023-05-10T11:58:55;18.40;99.90
2002;DHT22;1003;48.002;7.788;2023-05-10T12:01:24;18.40;99.90
2002;DHT22;1003;48.002;7.788;2023-05-10T12:03:56;18.50;99.90
2002;DHT22;1003;48.002;7.788;2023-05-10T12:06:27;18.50;99.90
2002;DHT22;1003;48.002;7.788;2023-05-10T12:08:56;18.50;99.90
2002;DHT22;1003;48.002;7.788;2023-05-10T12:11:25;18.40;99.90
2002;DHT22;1003;48.002;7.788;2023-05-10T12:13:54;18.30;99.90
2002;DHT22;1003;48.002;7.788;2023-05-10T12:16:23;18.20;99.90
2002;DHT22;1003;48.002;7.788;2023-05-10T12:18:55;18.00;99.90
2002;DHT22;1003;48.002;7.788;2023-05-10T12:21:23;17.90;99.90
2002;DHT22;1003;48.002;7.788;2023-05-10T12:23:53;17.70;99.90
2002;DHT22;1003;48.002;7.788;2023-05-10T12:26:22;17.40;99.90
2002;DHT22;1003;48.002;7.788;2023-05-10T12:28:49;17.20;99.90
2002;DHT22;1003;48.002;7.788;2023-05-10T12:31:17;17.10;99.90
2002;DHT22;1003;48.002;7.788;2023-05-10T12:33:45;17.00;99.90
2002;DHT22;1003;48.002;7.788;2023-05-10T12:36:16;16.80;99.90
2002;DHT22;1003;48.002;7.788;2023-05-10T12:38:49;16.80;99.90
2002;DHT22;1003;48.002;7.788;2023-05-10T12:41:18;16.50;99.90
2002;DHT22;1003;48.002;7.788;2023-05-10T12:43:45;16.00;99.90
2002;DHT22;1003;48.002;7.788;2023-05-10T12:46:14;15.70;99.90
2002;DHT22;1003;48.002;7.788;2023-05-10T12:48:44;15.60;99.90
2002;DHT22;1003;48.002;7.788;2023-05-10T12:51:11;15.80;99.90
2002;DHT22;1003;48.002;7.788;2023-05-10T12:53:42;16.10;99.90
2002;DHT22;1003;48.002;7.788;2023-05-10T12:56:11;16.10;99.90
2002;DHT22;1003;48.002;7.788;2023-05-10T12:58:38;16.30;99.90
2002;DHT22;1003;48.002;7.788;2023-05-10T13:01:05;16.30;99.90
2002;DHT22;1003;48.002;7.788;2023-05-10T13:03:33;16.40;99.90
2002;DHT22;1003;48.002;7.788;2023-05-10T13:06:00;16.50;99.90
2002;DHT22;1003;48.002;7.788;2023-05-10T13:08:27;16.70;99.90
2002;DHT22;1003;48.002;7.788;2023-05-10T13:11:00;16.70;99.90
2002;DHT22;1003;48.002;7.788;2023-05-10T13:13:27;16.70;99.90
2002;DHT22;1003;48.002;7.788;2023-05-10T13:15:54;16.90;99.90
2002;DHT22;1003;48.002;7.788;2023-05-10T13:18:21;17.10;99.90
2002;DHT22;1003;48.002;7.788;2023-05-10T13:20:49;16.80;99.90
2002;DHT22;1003;48.002;7.788;2023-05-10T13:23:16;16.70;99.90
2002;DHT22;1003;48.002;7.788;2023-05-10T13:25:43;16.40;99.90
2002;DHT22;1003;48.002;7.788;2023-05-10T13:28:12;16.30;99.90
2002;DHT22;1003;48.002;7.788;2023-05-10T13:30:39;16.20;99.90
2002;DHT22;1003;48.002;7.788;2023-05-10T13:33:06;16.20;99.90
2002;DHT22;1003;48.002;7.788;2023-05-10T13:35:33;16.40;99.90
2002;DHT22;1003;48.002;7.788;2023-05-10T13:38:00;17.00;99.90
2002;DHT22;1003;48.002;7.788;2023-05-10T13:40:27;17.20;99.90
2002;DHT22;1003;48.002;7.788;2023-05-10T13:42:54;17.40;99.90
2002;DHT22;1003;48.002;7.788;2023-05-10T13:45:23;17.40;99.90
2002;DHT22;1003;48.002;7.788;2023-05-10T13:47:50;17.70;99.90
2002;DHT22;1003;48.002;7.788;2023-05-10T13:50:17;17.70;99.90
2002;DHT22;1003;48.002;7.788;2023-05-10T13:52:44;17.50;99.90
2002;DHT22;1003;48.002;7.788;2023-05-10T13:55:12;17.70;99.90
2002;DHT22;1003;48.002;7.788;2023-05-10T13:57:40;17.90;99.90
2002;DHT22;1003;48.002;7.788;2023-05-10T14:00:09;18.00;99.90
2002;DHT22;1003;48.002;7.788;2023-05-10T14:02:38;17.90;99.90
2002;DHT22;1003;48.002;7.788;2023-05-10T14:05:06;17.90;99.90
2002;DHT22;1003;48.002;7.788;2023-05-10T14:07:33;17.80;99.90
2002;DHT22;1003;48.002;7.788;2023-05-10T14:10:00;17.80;99.90
2002;DHT22;1003;48.002;7.788;2023-05-10T14:12:28;17.70;99.90
2002;DHT22;1003;48.002;7.788;2023-05-10T14:14:55;17.40;99.90
2002;DHT22;1003;48.002;7.788;2023-05-10T14:17:23;17.60;99.90
2002;DHT22;1003;48.002;7.788;2023-05-10T14:19:52;17.90;99.90
2002;DHT22;1003;48.002;7.788;2023-05-10T14:22:20;18.10;99.90
2002;DHT22;1003;48.002;7.788;2023-05-10T14:24:50;18.20;99.90
2002;DHT22;1003;48.002;7.788;2023-05-10T14:27:17;18.30;99.90
2002;DHT22;1003;48.002;7.788;2023-05-10T14:29:44;18.20;99.90
2002;DHT22;1003;48.002;7.788;2023-05-10T14:32:11;18.10;99.90
2002;DHT22;1003;48.002;7.788;2023-05-10T14:34:38;17.80;99.90
2002;DHT22;1003;48.002;7.788;2023-05-10T14:37:06;18.00;99.90
2002;DHT22;1003;48.002;7.788;2023-05-10T14:39:33;18.10;99.90
2002;DHT22;1003;48.002;7.788;2023-05-10T14:42:00;17.90;99.90
2002;DHT22;1003;48.002;7.788;2023-05-10T14:44:28;18.10;99.90
2002;DHT22;1003;48.002;7.788;2023-05-10T14:46:55;18.00;99.90
2002;DHT22;1003;48.002;7.788;2023-05-10T14:49:22;17.90;99.90
2002;DHT22;1003;48.002;7.788;2023-05-10T14:51:51;17.90;99.90
2002;DHT22;1003;48.002;7.788;2023-05-10T14:54:20;17.40;99.90
2002;DHT22;1003;48.002;7.788;2023-05-10T14:56:47;17.60;99.90
2002;DHT22;1003;48.002;7.788;2023-05-10T14:59:15;17.80;99.90
2002;DHT22;1003;48.002;7.788;2023-05-10T15:01:42;18.20;99.90
2002;DHT22;1003;48.002;7.788;2023-05-10T15:04:09;18.60;99.90
2002;DHT22;1003;48.002;7.788;2023-05-10T15:06:38;18.40;99.90
2002;DHT22;1003;48.002;7.788;2023-05-10T15:09:06;18.20;99.90
2002;DHT22;1003;48.002;7.788;2023-05-10T15:11:35;18.00;99.90
2002;DHT22;1003;48.002;7.788;2023-05-10T15:14:02;18.00;99.90
2002;DHT22;1003;48.002;7.788;2023-05-10T15:16:30;17.70;99.90
2002;DHT22;1003;48.002;7.788;2023-05-10T15:18:57;17.60;99.90
2002;DHT22;1003;48.002;7.788;2023-05-10T15:21:24;17.70;99.90
2002;DHT22;1003;48.002;7.788;2023-05-10T15:23:51;17.60;99.90
2002;DHT22;1003;48.002;7.788;2023-05-10T15:26:18;17.80;99.90
2002;DHT22;1003;48.002;7.788;2023-05-10T15:28:46;18.20;99.90
2002;DHT22;1003;48.002;7.788;2023-05-10T15:31:14;18.50;99.90
2002;DHT22;1003;48.002;7.788;2023-05-10T15:33:41;18.90;99.90
2002;DHT22;1003;48.002;7.788;2023-05-10T15:36:08;19.30;99.90
2002;DHT22;1003;48.002;7.788;2023-05-10T15:38:35;19.30;99.90
2002;DHT22;1003;48.002;7.788;2023-05-10T15:41:02;19.20;99.90
2002;DHT22;1003;48.002;7.788;2023-05-10T15:43:30;19.00;99.90
2002;DHT22;1003;48.002;7.788;2023-05-10T15:45:58;18.80;99.90
2002;DHT22;1003;48.002;7.788;2023-05-10T15:48:25;18.50;99.90
2002;DHT22;1003;48.002;7.788;2023-05-10T15:50:52;18.40;99.90
2002;DHT22;1003;48.002;7.788;2023-05-10T15:53:20;18.30;99.90
2002;DHT22;1003;48.002;7.788;2023-05-10T15:55:48;18.40;99.90
2002;DHT22;1003;48.002;7.788;2023-05-10T15:58:16;18.50;99.90
2002;DHT22;1003;48.002;7.788;2023-05-10T16:00:43;18.50;99.90
2002;DHT22;1003;48.002;7.788;2023-05-10T16:03:11;18.50;99.90
2002;DHT22;1003;48.002;7.788;2023-05-10T16:05:38;18.30;99.90
2002;DHT22;1003;48.002;7.788;2023-05-10T16:08:05;18.20;99.90
2002;DHT22;1003;48.002;7.788;2023-05-10T16:10:33;18.20;99.90
2002;DHT22;1003;48.002;7.788;2023-05-10T16:13:00;17.90;99.90
2002;DHT22;1003;48.002;7.788;2023-05-10T16:15:28;17.70;99.90
2002;DHT22;1003;48.002;7.788;2023-05-10T16:17:55;17.60;99.90
2002;DHT22;1003;48.002;7.788;2023-05-10T16:20:23;17.40;99.90
2002;DHT22;1003;48.002;7.788;2023-05-10T16:22:50;17.20;99.90
2002;DHT22;1003;48.002;7.788;2023-05-10T16:25:18;17.10;99.90
2002;DHT22;1003;48.002;7.788;2023-05-10T16:27:48;17.10;99.90
2002;DHT22;1003;48.002;7.788;2023-05-10T16:30:15;17.00;99.90
2002;DHT22;1003;48.002;7.788;2023-05-10T16:32:42;17.20;99.90
2002;DHT22;1003;48.002;7.788;2023-05-10T16:35:12;17.40;99.90
2002;DHT22;1003;48.002;7.788;2023-05-10T16:37:40;17.40;99.90
2002;DHT22;1003;48.002;7.788;2023-05-10T16:40:08;17.30;99.90
2002;DHT22;1003;48.002;7.788;2023-05-10T16:42:36;17.30;99.90
2002;DHT22;1003;48.002;7.788;2023-05-10T16:45:04;17.40;99.90
2002;DHT22;1003;48.002;7.788;2023-05-10T16:47:33;17.50;99.90
2002;DHT22;1003;48.002;7.788;2023-05-10T16:50:01;17.40;99.90
2002;DHT22;1003;48.002;7.788;2023-05-10T16:52:29;17.50;99.90
2002;DHT22;1003;48.002;7.788;2023-05-10T16:54:59;17.50;99.90
2002;DHT22;1003;48.002;7.788;2023-05-10T16:57:26;17.70;99.90
2002;DHT22;1003;48.002;7.788;2023-05-10T16:59:54;17.50;99.90
2002;DHT22;1003;48.002;7.788;2023-05-10T17:02:22;17.40;99.90
2002;DHT22;1003;48.002;7.788;2023-05-10T17:04:49;17.60;99.90
2002;DHT22;1003;48.002;7.788;2023-05-10T17:07:17;17.50;99.90
2002;DHT22;1003;48.002;7.788;2023-05-10T17:09:45;17.60;99.90
2002;DHT22;1003;48.002;7.788;2023-05-10T17:12:13;17.70;99.90
2002;DHT22;1003;48.002;7.788;2023-05-10T17:14:40;17.60;99.90
2002;DHT22;1003;48.002;7.788;2023-05-10T17:17:07;17.70;99.90
2002;DHT22;1003;48.002;7.788;2023-05-10T17:19:35;17.70;99.90
2002;DHT22;1003;48.002;7.788;2023-05-10T17:22:03;17.70;99.90
2002;DHT22;1003;48.002;7.788;2023-05-10T17:24:30;17.70;99.90
2002;DHT22;1003;48.002;7.788;2023-05-10T17:26:57;17.60;99.90
2002;DHT22;1003;48.002;7.788;2023-05-10T17:29:26;17.60;99.90
2002;DHT22;1003;48.002;7.788;2023-05-10T17:31:53;17.40;99.90
2002;DHT22;1003;48.002;7.788;2023-05-10T17:34:20;17.30;99.90
2002;DHT22;1003;48.002;7.788;2023-05-10T17:36:47;17.10;99.90
2002;DHT22;1003;48.002;7.788;2023-05-10T17:39:15;16.90;99.90
2002;DHT22;1003;48.002;7.788;2023-05-10T17:41:42;16.50;99.90
2002;DHT22;1003;48.002;7.788;2023-05-10T17:44:09;16.40;99.90
2002;DHT22;1003;48.002;7.788;2023-05-10T17:46:39;16.20;99.90
2002;DHT22;1003;48.002;7.788;2023-05-10T17:49:06;16.20;99.90
2002;DHT22;1003;48.002;7.788;2023-05-10T17:51:33;16.10;99.90
2002;DHT22;1003;48.002;7.788;2023-05-10T17:54:00;16.10;99.90
2002;DHT22;1003;48.002;7.788;2023-05-10T17:56:27;16.20;99.90
2002;DHT22;1003;48.002;7.788;2023-05-10T17:58:54;16.20;99.90
2002;DHT22;1003;48.002;7.788;2023-05-10T18:01:21;16.20;99.90
2002;DHT22;1003;48.002;7.788;2023-05-10T18:03:49;16.20;99.90
2002;DHT22;1003;48.002;7.788;2023-05-10T18:06:17;16.30;99.90
2002;DHT22;1003;48.002;7.788;2023-05-10T18:08:44;16.40;99.90
2002;DHT22;1003;48.002;7.788;2023-05-10T18:11:11;16.40;99.90
2002;DHT22;1003;48.002;7.788;2023-05-10T18:13:38;16.30;99.90
2002;DHT22;1003;48.002;7.788;2023-05-10T18:16:05;16.30;99.90
2002;DHT22;1003;48.002;7.788;2023-05-10T18:18:37;16.40;99.90
2002;DHT22;1003;48.002;7.788;2023-05-10T18:21:05;16.40;99.90
2002;DHT22;1003;48.002;7.788;2023-05-10T18:23:32;16.40;99.90
2002;DHT22;1003;48.002;7.788;2023-05-10T18:26:00;16.30;99.90
2002;DHT22;1003;48.002;7.788;2023-05-10T18:28:27;16.30;99.90
2002;DHT22;1003;48.002;7.788;2023-05-10T18:30:54;16.10;99.90
2002;DHT22;1003;48.002;7.788;2023-05-10T18:33:22;16.00;99.90
2002;DHT22;1003;48.002;7.788;2023-05-10T18:35:49;15.90;99.90
2002;DHT22;1003;48.002;7.788;2023-05-10T18:38:17;15.70;99.90
2002;DHT22;1003;48.002;7.788;2023-05-10T18:40:44;15.70;99.90
2002;DHT22;1003;48.002;7.788;2023-05-10T18:43:11;15.60;99.90
2002;DHT22;1003;48.002;7.788;2023-05-10T18:45:39;15.50;99.90
2002;DHT22;1003;48.002;7.788;2023-05-10T18:48:06;15.20;99.90
2002;DHT22;1003;48.002;7.788;2023-05-10T18:50:33;15.10;99.90
2002;DHT22;1003;48.002;7.788;2023-05-10T18:53:00;15.10;99.90
2002;DHT22;1003;48.002;7.788;2023-05-10T18:55:28;15.00;99.90
2002;DHT22;1003;48.002;7.788;2023-05-10T18:57:55;14.90;99.90
2002;DHT22;1003;48.002;7.788;2023-05-10T19:00:23;14.90;99.90
2002;DHT22;1003;48.002;7.788;2023-05-10T19:02:50;14.80;99.90
2002;DHT22;1003;48.002;7.788;2023-05-10T19:05:18;14.70;99.90
2002;DHT22;1003;48.002;7.788;2023-05-10T19:07:45;14.70;99.90
2002;DHT22;1003;48.002;7.788;2023-05-10T19:10:12;14.60;99.90
2002;DHT22;1003;48.002;7.788;2023-05-10T19:12:41;14.40;99.90
2002;DHT22;1003;48.002;7.788;2023-05-10T19:15:08;14.30;99.90
2002;DHT22;1003;48.002;7.788;2023-05-10T19:17:36;14.30;99.90
2002;DHT22;1003;48.002;7.788;2023-05-10T19:20:04;14.20;99.90
2002;DHT22;1003;48.002;7.788;2023-05-10T19:22:31;14.20;99.90
2002;DHT22;1003;48.002;7.788;2023-05-10T19:24:59;14.10;99.90
2002;DHT22;1003;48.002;7.788;2023-05-10T19:27:26;14.00;99.90
2002;DHT22;1003;48.002;7.788;2023-05-10T19:29:54;14.00;99.90
2002;DHT22;1003;48.002;7.788;2023-05-10T19:32:21;13.90;99.90
2002;DHT22;1003;48.002;7.788;2023-05-10T19:34:48;13.80;99.90
2002;DHT22;1003;48.002;7.788;2023-05-10T19:37:15;13.90;99.90
2002;DHT22;1003;48.002;7.788;2023-05-10T19:39:42;13.80;99.90
2002;DHT22;1003;48.002;7.788;2023-05-10T19:42:10;13.80;99.90
2002;DHT22;1003;48.002;7.788;2023-05-10T19:44:37;13.80;99.90
2002;DHT22;1003;48.002;7.788;2023-05-10T19:47:05;13.70;99.90
2002;DHT22;1003;48.002;7.788;2023-05-10T19:49:33;13.60;99.90
2002;DHT22;1003;48.002;7.788;2023-05-10T19:52:01;13.60;99.90
2002;DHT22;1003;48.002;7.788;2023-05-10T19:54:29;13.60;99.90
2002;DHT22;1003;48.002;7.788;2023-05-10T19:56:56;13.70;99.90
2002;DHT22;1003;48.002;7.788;2023-05-10T19:59:23;13.60;99.90
2002;DHT22;1003;48.002;7.788;2023-05-10T20:01:53;13.60;99.90
2002;DHT22;1003;48.002;7.788;2023-05-10T20:04:21;13.50;99.90
2002;DHT22;1003;48.002;7.788;2023-05-10T20:06:48;13.50;99.90
2002;DHT22;1003;48.002;7.788;2023-05-10T20:09:15;13.50;99.90
2002;DHT22;1003;48.002;7.788;2023-05-10T20:11:42;13.50;99.90
2002;DHT22;1003;48.002;7.788;2023-05-10T20:14:10;13.50;99.90
2002;DHT22;1003;48.002;7.788;2023-05-10T20:16:37;13.40;99.90
2002;DHT22;1003;48.002;7.788;2023-05-10T20:19:04;13.50;99.90
2002;DHT22;1003;48.002;7.788;2023-05-10T20:21:32;13.40;99.90
2002;DHT22;1003;48.002;7.788;2023-05-10T20:23:59;13.40;99.90
2002;DHT22;1003;48.002;7.788;2023-05-10T20:26:26;13.40;99.90
2002;DHT22;1003;48.002;7.788;2023-05-10T20:28:54;13.40;99.90
2002;DHT22;1003;48.002;7.788;2023-05-10T20:31:21;13.30;99.90
2002;DHT22;1003;48.002;7.788;2023-05-10T20:33:48;13.30;99.90
2002;DHT22;1003;48.002;7.788;2023-05-10T20:36:18;13.30;99.90
2002;DHT22;1003;48.002;7.788;2023-05-10T20:38:47;13.30;99.90
2002;DHT22;1003;48.002;7.788;2023-05-10T20:41:14;13.30;99.90
2002;DHT22;1003;48.002;7.788;2023-05-10T20:43:41;13.30;99.90
2002;DHT22;1003;48.002;7.788;2023-05-10T20:46:08;13.20;99.90
2002;DHT22;1003;48.002;7.788;2023-05-10T20:48:35;13.20;99.90
2002;DHT22;1003;48.002;7.788;2023-05-10T20:51:02;13.20;99.90
2002;DHT22;1003;48.002;7.788;2023-05-10T20:53:29;13.20;99.90
2002;DHT22;1003;48.002;7.788;2023-05-10T20:55:58;13.10;99.90
2002;DHT22;1003;48.002;7.788;2023-05-10T20:58:25;13.10;99.90
2002;DHT22;1003;48.002;7.788;2023-05-10T21:00:52;13.20;99.90
2002;DHT22;1003;48.002;7.788;2023-05-10T21:03:20;13.20;99.90
2002;DHT22;1003;48.002;7.788;2023-05-10T21:05:47;13.20;99.90
2002;DHT22;1003;48.002;7.788;2023-05-10T21:08:14;13.10;99.90
2002;DHT22;1003;48.002;7.788;2023-05-10T21:10:41;13.10;99.90
2002;DHT22;1003;48.002;7.788;2023-05-10T21:13:09;13.10;99.90
2002;DHT22;1003;48.002;7.788;2023-05-10T21:15:36;13.10;99.90
2002;DHT22;1003;48.002;7.788;2023-05-10T21:18:04;13.00;99.90
2002;DHT22;1003;48.002;7.788;2023-05-10T21:20:31;13.00;99.90
2002;DHT22;1003;48.002;7.788;2023-05-10T21:22:58;13.10;99.90
2002;DHT22;1003;48.002;7.788;2023-05-10T21:25:25;13.00;99.90
2002;DHT22;1003;48.002;7.788;2023-05-10T21:27:52;13.00;99.90
2002;DHT22;1003;48.002;7.788;2023-05-10T21:30:21;13.00;99.90
2002;DHT22;1003;48.002;7.788;2023-05-10T21:32:48;12.90;99.90
2002;DHT22;1003;48.002;7.788;2023-05-10T21:35:16;12.90;99.90
2002;DHT22;1003;48.002;7.788;2023-05-10T21:37:43;12.80;99.90
2002;DHT22;1003;48.002;7.788;2023-05-10T21:40:11;12.80;99.90
2002;DHT22;1003;48.002;7.788;2023-05-10T21:42:38;12.80;99.90
2002;DHT22;1003;48.002;7.788;2023-05-10T21:45:06;12.70;99.90
2002;DHT22;1003;48.002;7.788;2023-05-10T21:47:35;12.70;99.90
2002;DHT22;1003;48.002;7.788;2023-05-10T21:50:02;12.70;99.90
2002;DHT22;1003;48.002;7.788;2023-05-10T21:52:29;12.60;99.90
2002;DHT22;1003;48.002;7.788;2023-05-10T21:54:56;12.60;99.90
2002;DHT22;1003;48.002;7.788;2023-05-10T21:57:23;12.60;99.90
2002;DHT22;1003;48.002;7.788;2023-05-10T21:59:50;12.60;99.90
2002;DHT22;1003;48.002;7.788;2023-05-10T22:02:17;12.50;99.90
2002;DHT22;1003;48.002;7.788;2023-05-10T22:04:46;12.50;99.90
2002;DHT22;1003;48.002;7.788;2023-05-10T22:07:13;12.50;99.90
2002;DHT22;1003;48.002;7.788;2023-05-10T22:09:41;12.50;99.90
2002;DHT22;1003;48.002;7.788;2023-05-10T22:12:08;12.40;99.90
2002;DHT22;1003;48.002;7.788;2023-05-10T22:14:35;12.40;99.90
2002;DHT22;1003;48.002;7.788;2023-05-10T22:17:02;12.30;99.90
2002;DHT22;1003;48.002;7.788;2023-05-10T22:19:29;12.20;99.90
2002;DHT22;1003;48.002;7.788;2023-05-10T22:21:58;12.20;99.90
2002;DHT22;1003;48.002;7.788;2023-05-10T22:24:24;12.10;99.90
2002;DHT22;1003;48.002;7.788;2023-05-10T22:26:56;12.10;99.90
2002;DHT22;1003;48.002;7.788;2023-05-10T22:29:23;12.10;99.90
2002;DHT22;1003;48.002;7.788;2023-05-10T22:31:50;12.00;99.90
2002;DHT22;1003;48.002;7.788;2023-05-10T22:34:18;12.00;99.90
2002;DHT22;1003;48.002;7.788;2023-05-10T22:36:46;12.00;99.90
2002;DHT22;1003;48.002;7.788;2023-05-10T22:39:16;12.00;99.90
2002;DHT22;1003;48.002;7.788;2023-05-10T22:41:43;12.00;99.90
2002;DHT22;1003;48.002;7.788;2023-05-10T22:44:10;12.00;99.90
2002;DHT22;1003;48.002;7.788;2023-05-10T22:46:37;12.00;99.90
2002;DHT22;1003;48.002;7.788;2023-05-10T22:49:04;12.00;99.90
2002;DHT22;1003;48.002;7.788;2023-05-10T22:51:32;12.00;99.90
2002;DHT22;1003;48.002;7.788;2023-05-10T22:53:59;12.00;99.90
2002;DHT22;1003;48.002;7.788;2023-05-10T22:56:27;12.00;99.90